createdAt,value
2022-11-15T00:00:47.302Z,23.88
2022-11-15T00:03:15.856Z,32.95
2022-11-15T00:05:43.686Z,27.75
2022-11-15T00:08:12.753Z,27.90
2022-11-15T00:10:40.477Z,27.15
2022-11-15T00:13:08.206Z,28.15
2022-11-15T00:15:36.843Z,28.08
2022-11-15T00:18:04.613Z,27.33
2022-11-15T00:20:32.268Z,26.73
2022-11-15T00:23:00.317Z,29.80
2022-11-15T00:25:29.484Z,21.60
2022-11-15T00:27:57.608Z,25.33
2022-11-15T00:30:25.618Z,30.15
2022-11-15T00:32:53.380Z,25.58
2022-11-15T00:35:21.295Z,25.00
2022-11-15T00:37:51.946Z,27.50
2022-11-15T00:40:19.599Z,27.13
2022-11-15T00:42:48.603Z,29.00
2022-11-15T00:45:16.445Z,28.40
2022-11-15T00:47:46.083Z,22.00
2022-11-15T00:50:15.352Z,23.98
2022-11-15T00:52:43.287Z,22.30
2022-11-15T00:55:12.198Z,25.23
2022-11-15T00:57:39.802Z,21.90
2022-11-15T01:00:09.951Z,23.20
2022-11-15T01:02:37.714Z,21.70
2022-11-15T01:05:05.718Z,22.77
2022-11-15T01:07:33.394Z,19.23
2022-11-15T01:10:01.106Z,21.40
2022-11-15T01:12:28.746Z,21.98
2022-11-15T01:14:56.378Z,20.52
2022-11-15T01:17:25.394Z,26.45
2022-11-15T01:19:53.101Z,28.58
2022-11-15T01:22:20.988Z,26.73
2022-11-15T01:24:48.643Z,27.17
2022-11-15T01:27:16.288Z,23.50
2022-11-15T01:29:43.919Z,31.38
2022-11-15T01:32:11.559Z,26.17
2022-11-15T01:34:40.547Z,28.10
2022-11-15T01:37:08.150Z,21.67
2022-11-15T01:39:35.758Z,24.08
2022-11-15T01:42:03.496Z,24.23
2022-11-15T01:44:40.962Z,26.10
2022-11-15T01:47:11.178Z,20.58
2022-11-15T01:49:41.256Z,23.88
2022-11-15T01:52:11.077Z,19.40
2022-11-15T01:54:38.862Z,29.00
2022-11-15T01:57:08.577Z,22.38
2022-11-15T01:59:36.359Z,22.08
2022-11-15T02:02:03.998Z,17.95
2022-11-15T02:04:33.523Z,21.30
2022-11-15T02:07:04.257Z,16.75
2022-11-15T02:09:32.222Z,20.27
2022-11-15T02:12:01.334Z,17.83
2022-11-15T02:14:29.822Z,16.52
2022-11-15T02:17:01.462Z,16.60
2022-11-15T02:19:39.304Z,16.88
2022-11-15T02:22:13.785Z,11.02
2022-11-15T02:24:59.347Z,16.50
2022-11-15T02:27:37.190Z,14.95
2022-11-15T02:30:21.320Z,14.27
2022-11-15T02:32:52.209Z,16.02
2022-11-15T02:35:25.658Z,13.30
2022-11-15T02:37:57.564Z,15.25
2022-11-15T02:40:28.857Z,11.10
2022-11-15T02:43:15.633Z,17.60
2022-11-15T02:45:47.100Z,11.18
2022-11-15T02:48:15.589Z,12.52
2022-11-15T02:50:43.262Z,16.00
2022-11-15T02:53:11.321Z,13.75
2022-11-15T02:55:40.335Z,15.73
2022-11-15T02:58:18.768Z,11.93
2022-11-15T03:00:50.146Z,11.05
2022-11-15T03:03:26.825Z,14.05
2022-11-15T03:05:56.439Z,12.77
2022-11-15T03:08:28.542Z,10.52
2022-11-15T03:10:59.977Z,10.88
2022-11-15T03:13:29.481Z,12.30
2022-11-15T03:16:03.926Z,11.57
2022-11-15T03:18:34.659Z,11.00
2022-11-15T03:21:03.298Z,11.95
2022-11-15T03:23:32.762Z,10.18
2022-11-15T03:26:01.591Z,10.80
2022-11-15T03:28:34.535Z,17.08
2022-11-15T03:31:24.559Z,10.65
2022-11-15T03:33:53.524Z,9.15
2022-11-15T03:36:21.668Z,10.05
2022-11-15T03:38:50.153Z,11.05
2022-11-15T03:41:20.150Z,11.02
2022-11-15T03:43:50.180Z,10.40
2022-11-15T03:46:21.998Z,13.38
2022-11-15T03:48:52.346Z,9.25
2022-11-15T03:51:20.355Z,9.27
2022-11-15T03:53:50.429Z,12.68
2022-11-15T03:56:18.034Z,8.45
2022-11-15T03:58:45.763Z,11.18
2022-11-15T04:01:13.441Z,9.13
2022-11-15T04:03:42.506Z,10.43
2022-11-15T04:06:10.280Z,6.97
2022-11-15T04:08:37.880Z,9.82
2022-11-15T04:11:05.659Z,13.63
2022-11-15T04:13:33.621Z,10.20
2022-11-15T04:16:01.536Z,12.00
2022-11-15T04:18:29.156Z,9.85
2022-11-15T04:21:15.912Z,10.30
2022-11-15T04:24:01.081Z,14.55
2022-11-15T04:26:29.021Z,6.97
2022-11-15T04:29:14.307Z,6.38
2022-11-15T04:31:41.912Z,7.38
2022-11-15T04:34:10.713Z,5.05
2022-11-15T04:36:57.451Z,7.13
2022-11-15T04:39:25.108Z,9.20
2022-11-15T04:41:52.712Z,11.43
2022-11-15T04:44:20.371Z,13.48
2022-11-15T04:46:48.102Z,7.03
2022-11-15T04:49:15.690Z,6.95
2022-11-15T04:51:44.682Z,8.70
2022-11-15T04:54:12.322Z,6.53
2022-11-15T04:56:39.991Z,7.10
2022-11-15T04:59:07.803Z,6.05
2022-11-15T05:01:38.454Z,6.80
2022-11-15T05:04:20.068Z,8.70
2022-11-15T05:06:49.829Z,7.82
2022-11-15T05:09:17.597Z,5.90
2022-11-15T05:11:45.200Z,8.00
2022-11-15T05:14:12.836Z,10.80
2022-11-15T05:16:40.632Z,10.30
2022-11-15T05:19:08.727Z,8.20
2022-11-15T05:21:36.339Z,10.63
2022-11-15T05:24:05.613Z,7.45
2022-11-15T05:26:33.316Z,7.65
2022-11-15T05:29:01.150Z,8.80
2022-11-15T05:31:29.069Z,7.82
2022-11-15T05:33:57.577Z,8.00
2022-11-15T05:36:29.542Z,5.95
2022-11-15T05:38:57.163Z,14.10
2022-11-15T05:41:27.170Z,8.13
2022-11-15T05:43:55.371Z,9.02
2022-11-15T05:46:23.137Z,9.75
2022-11-15T05:48:51.641Z,10.38
2022-11-15T05:51:20.404Z,7.63
2022-11-15T05:53:48.617Z,15.23
2022-11-15T05:56:16.818Z,10.00
2022-11-15T05:58:45.911Z,10.40
2022-11-15T06:01:13.664Z,10.02
2022-11-15T06:03:41.290Z,6.00
2022-11-15T06:06:12.330Z,9.48
2022-11-15T06:08:43.753Z,12.23
2022-11-15T06:11:11.611Z,12.05
2022-11-15T06:13:39.235Z,9.00
2022-11-15T06:16:08.712Z,12.07
2022-11-15T06:18:36.844Z,6.55
2022-11-15T06:21:05.053Z,7.18
2022-11-15T06:23:34.451Z,9.02
2022-11-15T06:26:02.758Z,8.68
2022-11-15T06:28:30.761Z,8.52
2022-11-15T06:31:00.866Z,9.00
2022-11-15T06:33:30.594Z,12.13
2022-11-15T06:36:01.823Z,16.15
2022-11-15T06:38:29.457Z,9.57
2022-11-15T06:40:57.118Z,9.27
2022-11-15T06:43:24.786Z,12.25
2022-11-15T06:45:52.451Z,8.02
2022-11-15T06:48:20.166Z,9.48
2022-11-15T06:50:53.880Z,8.57
2022-11-15T06:53:21.930Z,10.90
2022-11-15T06:55:54.928Z,12.10
2022-11-15T06:58:23.389Z,11.10
2022-11-15T07:00:51.248Z,12.10
2022-11-15T07:03:19.482Z,8.90
2022-11-15T07:05:54.425Z,13.23
2022-11-15T07:08:22.091Z,15.98
2022-11-15T07:10:49.753Z,13.65
2022-11-15T07:13:17.634Z,10.35
2022-11-15T07:15:45.363Z,10.60
2022-11-15T07:18:13.008Z,8.05
2022-11-15T07:20:40.789Z,11.10
2022-11-15T07:23:09.802Z,9.80
2022-11-15T07:25:37.461Z,13.60
2022-11-15T07:28:05.729Z,10.05
2022-11-15T07:30:33.357Z,9.70
2022-11-15T07:33:01.634Z,11.07
2022-11-15T07:35:29.721Z,10.25
2022-11-15T07:37:58.043Z,11.00
2022-11-15T07:40:27.613Z,8.35
2022-11-15T07:43:00.541Z,10.85
2022-11-15T07:45:28.405Z,12.05
2022-11-15T07:47:57.098Z,11.40
2022-11-15T07:50:25.102Z,8.57
2022-11-15T07:52:55.883Z,11.40
2022-11-15T07:55:23.803Z,11.45
2022-11-15T07:57:52.804Z,11.05
2022-11-15T08:00:21.131Z,10.88
2022-11-15T08:02:48.917Z,9.35
2022-11-15T08:05:16.825Z,10.98
2022-11-15T08:07:44.637Z,11.43
2022-11-15T08:10:12.928Z,10.82
2022-11-15T08:12:40.548Z,9.85
2022-11-15T08:15:10.150Z,11.13
2022-11-15T08:17:37.747Z,12.85
2022-11-15T08:20:05.794Z,9.50
2022-11-15T08:22:33.683Z,7.05
2022-11-15T08:25:01.360Z,8.20
2022-11-15T08:27:29.118Z,9.88
2022-11-15T08:29:59.607Z,11.45
2022-11-15T08:32:28.777Z,7.22
2022-11-15T08:34:56.390Z,10.10
2022-11-15T08:37:24.012Z,6.43
2022-11-15T08:39:51.609Z,7.60
2022-11-15T08:42:20.237Z,6.93
2022-11-15T08:44:47.979Z,7.75
2022-11-15T08:47:15.843Z,8.13
2022-11-15T08:49:44.875Z,4.55
2022-11-15T08:52:12.505Z,9.30
2022-11-15T08:54:40.267Z,8.70
2022-11-15T08:57:08.145Z,9.18
2022-11-15T08:59:35.801Z,4.60
2022-11-15T09:02:03.701Z,2.45
2022-11-15T09:04:31.390Z,5.38
2022-11-15T09:07:00.399Z,3.47
2022-11-15T09:09:28.063Z,7.25
2022-11-15T09:12:01.026Z,5.70
2022-11-15T09:14:30.228Z,3.63
2022-11-15T09:16:57.844Z,7.38
2022-11-15T09:19:25.567Z,3.78
2022-11-15T09:21:53.932Z,4.97
2022-11-15T09:24:23.521Z,3.58
2022-11-15T09:26:51.957Z,4.05
2022-11-15T09:29:19.702Z,5.57
2022-11-15T09:31:47.388Z,6.45
2022-11-15T09:34:15.191Z,10.32
2022-11-15T09:36:42.872Z,2.85
2022-11-15T09:39:10.562Z,5.18
2022-11-15T09:41:59.323Z,3.80
2022-11-15T09:44:43.078Z,6.93
2022-11-15T09:47:17.604Z,5.32
2022-11-15T09:49:45.239Z,4.60
2022-11-15T09:52:13.181Z,4.07
2022-11-15T09:54:56.800Z,4.60
2022-11-15T09:57:32.069Z,6.53
2022-11-15T10:00:44.000Z,7.53
2022-11-15T10:03:10.007Z,6.55
2022-11-15T10:05:40.164Z,3.35
2022-11-15T10:08:15.412Z,4.93
2022-11-15T10:13:15.036Z,2.25
2022-11-15T10:15:46.508Z,2.08
2022-11-15T10:18:19.188Z,8.32
2022-11-15T10:20:49.425Z,3.13
2022-11-15T10:23:19.058Z,4.18
2022-11-15T10:25:46.776Z,6.60
2022-11-15T10:28:16.797Z,2.15
2022-11-15T10:30:47.320Z,3.80
2022-11-15T10:33:27.686Z,2.97
2022-11-15T10:36:13.709Z,3.83
2022-11-15T10:38:53.802Z,2.78
2022-11-15T10:41:22.747Z,5.20
2022-11-15T10:44:05.105Z,9.45
2022-11-15T10:46:49.609Z,3.85
2022-11-15T10:49:18.163Z,3.65
2022-11-15T10:51:47.604Z,2.25
2022-11-15T10:54:21.000Z,3.33
2022-11-15T10:56:51.858Z,2.47
2022-11-15T10:59:25.365Z,4.30
2022-11-15T11:01:54.460Z,3.50
2022-11-15T11:04:22.477Z,4.00
2022-11-15T11:06:50.715Z,3.00
2022-11-15T11:09:24.670Z,4.65
2022-11-15T11:11:53.298Z,6.20
2022-11-15T11:14:23.364Z,2.50
2022-11-15T11:16:53.210Z,4.05
2022-11-15T11:19:29.533Z,2.17
2022-11-15T11:21:59.815Z,2.67
2022-11-15T11:24:32.308Z,1.42
2022-11-15T11:27:05.964Z,4.10
2022-11-15T11:29:39.245Z,2.58
2022-11-15T11:32:15.121Z,5.22
2022-11-15T11:34:50.667Z,1.77
2022-11-15T11:37:21.534Z,2.88
2022-11-15T11:39:55.082Z,4.78
2022-11-15T11:42:28.605Z,4.68
2022-11-15T11:45:01.354Z,3.00
2022-11-15T11:47:34.249Z,2.80
2022-11-15T11:50:12.235Z,3.13
2022-11-15T11:52:41.315Z,1.70
2022-11-15T11:55:16.068Z,3.97
2022-11-15T11:57:46.049Z,5.75
2022-11-15T12:00:19.773Z,5.40
2022-11-15T12:02:49.873Z,3.28
2022-11-15T12:05:22.377Z,2.40
2022-11-15T12:07:51.576Z,3.05
2022-11-15T12:10:22.924Z,4.15
2022-11-15T12:12:53.798Z,1.58
2022-11-15T12:15:23.171Z,1.02
2022-11-15T12:17:51.037Z,4.70
2022-11-15T12:20:21.466Z,1.95
2022-11-15T12:22:51.801Z,9.10
2022-11-15T12:25:20.781Z,4.05
2022-11-15T12:27:51.232Z,3.35
2022-11-15T12:30:20.437Z,2.53
2022-11-15T12:32:53.786Z,3.97
2022-11-15T12:35:35.227Z,2.08
2022-11-15T12:38:02.896Z,2.72
2022-11-15T12:40:35.063Z,3.20
2022-11-15T12:43:04.151Z,7.05
2022-11-15T12:45:32.800Z,4.13
2022-11-15T12:48:34.346Z,2.97
2022-11-15T12:51:03.633Z,4.68
2022-11-15T12:53:32.541Z,1.90
2022-11-15T12:56:24.271Z,3.00
2022-11-15T12:58:56.026Z,1.73
2022-11-15T13:01:42.638Z,4.25
2022-11-15T13:04:11.112Z,3.42
2022-11-15T13:06:44.216Z,2.85
2022-11-15T13:09:31.795Z,3.08
2022-11-15T13:11:59.816Z,2.20
2022-11-15T13:14:47.552Z,2.83
2022-11-15T13:17:24.295Z,2.92
2022-11-15T13:19:57.312Z,4.13
2022-11-15T13:22:43.782Z,1.70
2022-11-15T13:25:20.160Z,3.25
2022-11-15T13:27:48.587Z,4.78
2022-11-15T13:30:18.092Z,1.75
2022-11-15T13:32:45.726Z,3.50
2022-11-15T13:35:20.433Z,2.03
2022-11-15T13:37:49.812Z,2.17
2022-11-15T13:40:21.908Z,2.22
2022-11-15T13:42:49.685Z,4.15
2022-11-15T13:45:18.647Z,3.10
2022-11-15T13:47:46.229Z,1.73
2022-11-15T13:50:14.598Z,3.05
2022-11-15T13:52:44.752Z,2.22
2022-11-15T13:55:15.357Z,1.77
2022-11-15T13:57:44.657Z,3.83
2022-11-15T14:00:27.136Z,3.83
2022-11-15T14:02:55.528Z,4.95
2022-11-15T14:05:24.640Z,3.90
2022-11-15T14:07:55.465Z,3.70
2022-11-15T14:10:32.096Z,2.60
2022-11-15T14:13:00.026Z,3.33
2022-11-15T14:15:30.465Z,2.55
2022-11-15T14:17:58.264Z,4.90
2022-11-15T14:20:31.684Z,7.57
2022-11-15T14:23:00.737Z,6.13
2022-11-15T14:25:29.191Z,3.63
2022-11-15T14:28:15.733Z,2.15
2022-11-15T14:30:44.103Z,3.50
2022-11-15T14:33:25.259Z,4.68
2022-11-15T14:35:53.278Z,3.97
2022-11-15T14:38:21.160Z,6.53
2022-11-15T14:40:48.759Z,2.88
2022-11-15T14:43:17.884Z,3.15
2022-11-15T14:45:45.625Z,5.05
2022-11-15T14:48:13.339Z,3.42
2022-11-15T14:50:41.003Z,4.53
2022-11-15T14:53:08.619Z,3.92
2022-11-15T14:55:37.345Z,4.43
2022-11-15T14:58:05.384Z,6.30
2022-11-15T15:00:35.584Z,3.88
2022-11-15T15:03:03.646Z,6.20
2022-11-15T15:05:33.442Z,8.60
2022-11-15T15:08:01.652Z,5.20
2022-11-15T15:10:41.149Z,4.85
2022-11-15T15:13:14.872Z,4.25
2022-11-15T15:15:43.839Z,10.75
2022-11-15T15:18:12.385Z,5.38
2022-11-15T15:20:41.133Z,4.95
2022-11-15T15:23:13.219Z,4.82
2022-11-15T15:25:41.328Z,6.82
2022-11-15T15:28:08.970Z,5.70
2022-11-15T15:30:36.600Z,4.53
2022-11-15T15:33:05.565Z,6.35
2022-11-15T15:35:34.485Z,8.07
2022-11-15T15:38:02.130Z,3.60
2022-11-15T15:40:30.973Z,6.82
2022-11-15T15:42:58.865Z,7.07
2022-11-15T15:45:27.223Z,6.07
2022-11-15T15:47:55.209Z,5.63
2022-11-15T15:50:25.414Z,6.07
2022-11-15T15:52:53.873Z,7.72
2022-11-15T15:55:21.860Z,7.13
2022-11-15T15:57:49.848Z,6.78
2022-11-15T16:00:18.669Z,5.22
2022-11-15T16:02:46.373Z,6.13
2022-11-15T16:05:14.446Z,5.05
2022-11-15T16:07:44.467Z,6.50
2022-11-15T16:10:18.533Z,5.70
2022-11-15T16:12:46.982Z,6.80
2022-11-15T16:15:14.856Z,6.40
2022-11-15T16:17:44.291Z,7.10
2022-11-15T16:20:17.563Z,9.32
2022-11-15T16:22:46.865Z,9.90
2022-11-15T16:25:14.466Z,9.75
2022-11-15T16:27:45.853Z,6.22
2022-11-15T16:30:14.635Z,5.85
2022-11-15T16:32:42.395Z,6.10
2022-11-15T16:35:12.573Z,6.25
2022-11-15T16:37:40.872Z,6.03
2022-11-15T16:40:18.786Z,4.45
2022-11-15T16:42:47.077Z,7.90
2022-11-15T16:45:14.906Z,7.28
2022-11-15T16:47:42.504Z,6.40
2022-11-15T16:50:15.436Z,9.63
2022-11-15T16:52:43.017Z,6.55
2022-11-15T16:55:10.850Z,5.43
2022-11-15T16:57:40.155Z,8.15
2022-11-15T17:00:08.507Z,11.35
2022-11-15T17:02:36.263Z,8.70
2022-11-15T17:05:09.813Z,8.00
2022-11-15T17:07:38.717Z,12.43
2022-11-15T17:10:07.446Z,10.00
2022-11-15T17:12:35.242Z,8.25
2022-11-15T17:15:05.635Z,9.55
2022-11-15T17:17:33.663Z,9.90
2022-11-15T17:20:01.356Z,8.10
2022-11-15T17:22:28.932Z,9.05
2022-11-15T17:24:56.576Z,9.40
2022-11-15T17:27:24.206Z,8.77
2022-11-15T17:29:51.837Z,8.65
2022-11-15T17:32:20.863Z,8.43
2022-11-15T17:34:48.460Z,8.95
2022-11-15T17:37:16.213Z,8.65
2022-11-15T17:39:43.883Z,8.75
2022-11-15T17:42:13.199Z,11.00
2022-11-15T17:44:40.820Z,8.57
2022-11-15T17:47:08.582Z,14.45
2022-11-15T17:49:40.760Z,10.13
2022-11-15T17:52:08.765Z,9.15
2022-11-15T17:54:36.405Z,9.05
2022-11-15T17:57:04.075Z,6.20
2022-11-15T17:59:31.928Z,7.82
2022-11-15T18:01:59.572Z,8.05
2022-11-15T18:04:28.778Z,7.63
2022-11-15T18:06:57.827Z,6.88
2022-11-15T18:09:26.423Z,10.70
2022-11-15T18:11:55.045Z,8.90
2022-11-15T18:14:23.379Z,10.23
2022-11-15T18:16:51.024Z,8.95
2022-11-15T18:19:18.853Z,8.45
2022-11-15T18:21:59.205Z,7.47
2022-11-15T18:24:29.272Z,9.68
2022-11-15T18:26:57.163Z,10.40
2022-11-15T18:29:25.667Z,11.55
2022-11-15T18:31:55.731Z,9.60
2022-11-15T18:34:24.668Z,13.65
2022-11-15T18:36:52.862Z,15.27
2022-11-15T18:39:20.811Z,10.38
2022-11-15T18:41:50.354Z,9.23
2022-11-15T18:44:18.149Z,9.95
2022-11-15T18:46:46.108Z,9.85
2022-11-15T18:49:14.761Z,8.50
2022-11-15T18:51:43.097Z,9.32
2022-11-15T18:54:11.705Z,7.55
2022-11-15T18:56:39.971Z,10.73
2022-11-15T18:59:09.367Z,11.35
2022-11-15T19:01:38.465Z,6.88
2022-11-15T19:04:07.354Z,9.02
2022-11-15T19:06:37.827Z,8.52
2022-11-15T19:09:05.569Z,8.43
2022-11-15T19:11:35.707Z,8.32
2022-11-15T19:14:04.212Z,9.10
2022-11-15T19:16:34.346Z,11.98
2022-11-15T19:19:02.776Z,13.23
2022-11-15T19:21:31.406Z,9.52
2022-11-15T19:23:59.670Z,7.00
2022-11-15T19:26:27.886Z,14.85
2022-11-15T19:28:56.593Z,14.43
2022-11-15T19:31:24.761Z,7.57
2022-11-15T19:33:53.981Z,10.00
2022-11-15T19:36:22.079Z,10.70
2022-11-15T19:38:49.929Z,10.75
2022-11-15T19:41:18.546Z,11.98
2022-11-15T19:43:47.961Z,13.85
2022-11-15T19:46:16.053Z,8.82
2022-11-15T19:48:44.092Z,8.40
2022-11-15T19:51:13.794Z,9.55
2022-11-15T19:53:42.320Z,11.38
2022-11-15T19:56:12.279Z,11.18
2022-11-15T19:58:40.210Z,8.57
2022-11-15T20:01:09.607Z,7.90
2022-11-15T20:03:37.383Z,12.27
2022-11-15T20:06:06.377Z,10.52
2022-11-15T20:08:36.078Z,11.65
2022-11-15T20:11:04.515Z,19.80
2022-11-15T20:13:32.758Z,10.18
2022-11-15T20:16:00.713Z,13.27
2022-11-15T20:18:28.896Z,14.80
2022-11-15T20:20:58.519Z,10.82
2022-11-15T20:23:26.555Z,9.57
2022-11-15T20:25:55.926Z,11.30
2022-11-15T20:28:24.234Z,11.63
2022-11-15T20:30:52.842Z,7.30
2022-11-15T20:33:20.914Z,9.52
2022-11-15T20:35:48.527Z,10.55
2022-11-15T20:38:16.503Z,13.18
2022-11-15T20:40:45.881Z,9.63
2022-11-15T20:43:15.442Z,11.30
2022-11-15T20:45:44.442Z,14.23
2022-11-15T20:48:13.841Z,10.45
2022-11-15T20:50:43.455Z,11.93
2022-11-15T20:53:11.882Z,9.70
2022-11-15T20:55:43.206Z,11.23
2022-11-15T20:58:11.699Z,10.00
2022-11-15T21:00:42.032Z,11.32
2022-11-15T21:03:09.971Z,6.90
2022-11-15T21:05:39.285Z,12.07
2022-11-15T21:08:07.264Z,11.05
2022-11-15T21:10:52.422Z,9.18
2022-11-15T21:13:20.032Z,10.32
2022-11-15T21:15:49.208Z,9.00
2022-11-15T21:18:16.809Z,12.02
2022-11-15T21:20:44.495Z,8.13
2022-11-15T21:23:12.729Z,9.48
2022-11-15T21:25:40.337Z,8.70
2022-11-15T21:28:08.024Z,9.18
2022-11-15T21:30:35.639Z,9.55
2022-11-15T21:33:04.666Z,11.65
2022-11-15T21:35:33.010Z,9.95
2022-11-15T21:38:00.628Z,10.48
2022-11-15T21:40:28.254Z,9.45
2022-11-15T21:42:56.023Z,9.52
2022-11-15T21:45:23.702Z,10.02
2022-11-15T21:47:51.302Z,10.10
2022-11-15T21:50:20.386Z,10.00
2022-11-15T21:52:48.026Z,9.93
2022-11-15T21:55:15.717Z,10.45
2022-11-15T21:57:43.387Z,8.02
2022-11-15T22:00:29.219Z,7.20
2022-11-15T22:02:56.911Z,10.75
2022-11-15T22:05:25.911Z,11.82
2022-11-15T22:07:53.624Z,10.02
2022-11-15T22:10:21.181Z,9.05
2022-11-15T22:12:49.132Z,8.65
2022-11-15T22:15:16.845Z,10.13
2022-11-15T22:17:59.641Z,8.30
2022-11-15T22:20:43.975Z,8.65
2022-11-15T22:23:12.852Z,9.20
2022-11-15T22:25:42.882Z,8.65
2022-11-15T22:28:10.463Z,7.47
2022-11-15T22:30:38.152Z,8.30
2022-11-15T22:33:05.842Z,10.40
2022-11-15T22:35:36.619Z,9.50
2022-11-15T22:38:04.484Z,8.43
2022-11-15T22:40:32.263Z,10.15
2022-11-15T22:42:59.955Z,9.13
2022-11-15T22:45:27.592Z,10.82
2022-11-15T22:47:55.177Z,6.43
2022-11-15T22:50:23.138Z,8.18
2022-11-15T22:52:52.210Z,7.55
2022-11-15T22:55:19.949Z,7.22
2022-11-15T22:57:47.612Z,8.75
2022-11-15T23:00:16.369Z,10.13
2022-11-15T23:02:44.265Z,9.38
2022-11-15T23:05:12.630Z,7.15
2022-11-15T23:07:40.264Z,4.88
2022-11-15T23:10:27.057Z,5.38
2022-11-15T23:13:12.464Z,5.47
2022-11-15T23:15:57.416Z,5.55
2022-11-15T23:18:25.236Z,3.58
2022-11-15T23:20:52.919Z,7.57
2022-11-15T23:23:19.513Z,5.38
2022-11-15T23:25:48.662Z,5.80
2022-11-15T23:28:16.317Z,7.13
2022-11-15T23:31:00.345Z,5.38
2022-11-15T23:33:45.268Z,7.00
2022-11-15T23:36:12.881Z,6.07
2022-11-15T23:38:40.797Z,5.82
2022-11-15T23:41:09.878Z,4.68
2022-11-15T23:43:37.615Z,3.90
2022-11-15T23:46:05.245Z,5.07
2022-11-15T23:48:33.100Z,5.53
2022-11-15T23:51:00.834Z,5.45
2022-11-15T23:53:28.464Z,4.15
2022-11-15T23:55:56.930Z,8.75
2022-11-15T23:58:26.039Z,5.05
